Time;durP1;ratioP1;P1;durP2;ratioP2;P2;SDS_P1;SDS_P2;PMS_P1;PMS_P2;Temp;Humidity;BMP_temperature;BMP_pressure;BME280_temperature;BME280_humidity;BME280_pressure;Samples;Min_cycle;Max_cycle;Signal;HPM_P1;HPM_P2
2023/09/30 00:00:57;;;;;;;8.50;4.30;;;14.10;99.90;;;;;;5034084;28;20225;-49
2023/09/30 00:03:23;;;;;;;9.68;4.63;;;;;;;;;;5051185;28;20590;-51
2023/09/30 00:05:49;;;;;;;10.27;4.63;;;14.00;99.90;;;;;;5051556;28;20198;-51
2023/09/30 00:08:15;;;;;;;9.70;4.63;;;13.90;99.90;;;;;;5051549;28;20206;-50
2023/09/30 00:10:40;;;;;;;11.00;4.72;;;13.90;99.90;;;;;;5051613;28;20221;-51
2023/09/30 00:13:06;;;;;;;12.40;4.55;;;13.90;99.90;;;;;;5051852;28;20505;-51
2023/09/30 00:15:32;;;;;;;11.80;4.45;;;13.90;99.90;;;;;;5052119;28;20175;-51
2023/09/30 00:17:58;;;;;;;11.40;4.47;;;13.90;99.90;;;;;;5051719;28;20570;-51
2023/09/30 00:20:24;;;;;;;8.98;4.72;;;14.00;99.90;;;;;;5051757;28;20163;-51
2023/09/30 00:22:49;;;;;;;12.80;3.70;;;13.90;99.90;;;;;;5051334;28;20533;-51
2023/09/30 00:25:15;;;;;;;10.10;4.57;;;13.90;99.90;;;;;;5050631;28;20175;-51
2023/09/30 00:27:41;;;;;;;11.45;5.32;;;14.00;99.90;;;;;;5051343;28;20263;-51
2023/09/30 00:30:07;;;;;;;11.23;4.35;;;14.10;99.90;;;;;;5051247;28;20206;-50
2023/09/30 00:32:33;;;;;;;11.48;5.18;;;;;;;;;;5051945;28;20177;-51
2023/09/30 00:35:01;;;;;;;9.60;4.30;;;14.10;99.90;;;;;;5051204;28;20174;-51
2023/09/30 00:37:27;;;;;;;10.35;4.82;;;14.10;99.90;;;;;;5051268;28;20630;-51
2023/09/30 00:39:53;;;;;;;8.27;3.90;;;14.00;99.90;;;;;;5051455;28;20197;-51
2023/09/30 00:42:20;;;;;;;11.15;5.15;;;14.10;99.90;;;;;;5051204;28;20177;-51
2023/09/30 00:44:46;;;;;;;8.68;4.50;;;;;;;;;;5051435;28;20178;-50
2023/09/30 00:47:12;;;;;;;13.18;5.07;;;14.10;99.90;;;;;;5050894;28;20229;-51
2023/09/30 00:49:38;;;;;;;11.85;5.38;;;14.10;99.90;;;;;;5051060;28;20727;-51
2023/09/30 00:52:04;;;;;;;13.00;5.88;;;14.20;99.90;;;;;;5051540;28;20521;-51
2023/09/30 00:54:31;;;;;;;10.25;4.90;;;14.10;99.90;;;;;;5051288;28;20178;-51
2023/09/30 00:56:57;;;;;;;9.25;5.15;;;14.10;99.90;;;;;;5051241;28;20178;-51
2023/09/30 00:59:26;;;;;;;11.13;5.25;;;14.00;99.90;;;;;;5050964;28;20159;-51
2023/09/30 01:01:52;;;;;;;12.73;4.80;;;14.00;99.90;;;;;;5050970;28;20163;-51
2023/09/30 01:04:20;;;;;;;11.82;4.80;;;14.00;99.90;;;;;;5051254;28;20189;-51
2023/09/30 01:06:47;;;;;;;14.90;5.63;;;14.00;99.90;;;;;;5051218;28;20175;-51
2023/09/30 01:09:13;;;;;;;10.85;5.10;;;14.10;99.90;;;;;;5050917;28;20680;-51
2023/09/30 01:11:40;;;;;;;11.30;5.03;;;14.10;99.90;;;;;;5050915;28;20174;-50
2023/09/30 01:14:27;;;;;;;13.98;5.32;;;14.00;99.90;;;;;;5051043;28;20170;-49
2023/09/30 01:16:53;;;;;;;13.75;5.40;;;14.00;99.90;;;;;;5050844;28;20175;-49
2023/09/30 01:19:19;;;;;;;11.52;5.55;;;14.00;99.90;;;;;;5051156;28;20610;-49
2023/09/30 01:21:48;;;;;;;17.77;5.78;;;14.00;99.90;;;;;;5050908;28;20245;-50
2023/09/30 01:24:16;;;;;;;21.33;6.25;;;14.00;99.90;;;;;;5050890;28;20627;-49
2023/09/30 01:26:42;;;;;;;12.88;6.10;;;14.00;99.90;;;;;;5050735;28;20167;-50
2023/09/30 01:29:11;;;;;;;14.63;5.75;;;13.90;99.90;;;;;;5050998;28;20203;-50
2023/09/30 01:31:38;;;;;;;15.05;5.20;;;14.00;99.90;;;;;;5050938;28;20175;-51
2023/09/30 01:34:03;;;;;;;12.30;5.45;;;13.90;99.90;;;;;;5051420;28;20179;-51
2023/09/30 01:36:29;;;;;;;18.55;5.50;;;14.10;99.90;;;;;;5053468;28;20167;-54
2023/09/30 01:38:55;;;;;;;11.98;5.30;;;14.00;99.90;;;;;;5054281;28;20162;-50
2023/09/30 01:41:21;;;;;;;14.38;6.10;;;;;;;;;;5054243;28;20162;-50
2023/09/30 01:43:46;;;;;;;14.18;5.43;;;14.00;99.90;;;;;;5054269;28;20178;-49
2023/09/30 01:46:12;;;;;;;9.73;5.20;;;14.10;99.90;;;;;;5036143;28;20218;-49
2023/09/30 01:48:38;;;;;;;11.15;5.03;;;14.10;99.90;;;;;;5054058;28;20174;-49
2023/09/30 01:51:04;;;;;;;14.57;5.65;;;14.10;99.90;;;;;;5054466;28;20171;-49
2023/09/30 01:53:29;;;;;;;14.70;5.53;;;14.00;99.90;;;;;;5054046;28;20553;-49
2023/09/30 01:55:55;;;;;;;18.27;5.18;;;14.10;99.90;;;;;;5053960;28;20621;-50
2023/09/30 01:58:20;;;;;;;10.63;4.65;;;14.00;99.90;;;;;;5053885;28;20507;-49
2023/09/30 02:00:46;;;;;;;9.95;5.47;;;14.00;99.90;;;;;;5053861;28;20521;-49
2023/09/30 02:03:11;;;;;;;14.05;5.57;;;13.90;99.90;;;;;;5053817;28;20629;-50
2023/09/30 02:05:39;;;;;;;9.70;4.97;;;13.90;99.90;;;;;;5053779;28;20171;-49
2023/09/30 02:08:05;;;;;;;11.52;5.22;;;13.90;99.90;;;;;;5054260;28;20189;-49
2023/09/30 02:10:33;;;;;;;13.48;5.30;;;13.90;99.90;;;;;;5054161;28;20202;-50
2023/09/30 02:12:59;;;;;;;14.20;5.75;;;13.80;99.90;;;;;;5053832;28;20173;-49
2023/09/30 02:15:25;;;;;;;15.95;5.88;;;13.80;99.90;;;;;;5053851;28;20238;-49
2023/09/30 02:17:51;;;;;;;14.52;5.55;;;13.80;99.90;;;;;;5053762;28;20258;-49
2023/09/30 02:20:19;;;;;;;15.68;5.72;;;13.80;99.90;;;;;;5053726;28;20262;-49
2023/09/30 02:22:45;;;;;;;21.45;5.63;;;13.80;99.90;;;;;;5053791;28;20178;-50
2023/09/30 02:25:12;;;;;;;14.07;5.05;;;13.80;99.90;;;;;;5053662;28;20531;-49
2023/09/30 02:27:39;;;;;;;9.95;5.40;;;13.70;99.90;;;;;;5053582;28;20186;-49
2023/09/30 02:30:05;;;;;;;12.18;5.10;;;13.70;99.90;;;;;;5053870;28;20256;-50
2023/09/30 02:32:33;;;;;;;13.57;5.20;;;13.60;99.90;;;;;;5053621;28;20642;-49
2023/09/30 02:34:58;;;;;;;18.77;5.22;;;13.60;99.90;;;;;;5053214;28;20649;-49
2023/09/30 02:37:25;;;;;;;11.43;5.15;;;;;;;;;;5053426;28;20167;-51
2023/09/30 02:39:51;;;;;;;20.10;7.93;;;13.50;99.90;;;;;;5053214;28;20162;-51
2023/09/30 02:42:16;;;;;;;11.75;5.82;;;13.60;99.90;;;;;;5053059;28;20165;-51
2023/09/30 02:44:42;;;;;;;15.38;5.53;;;;;;;;;;5052873;28;20253;-51
2023/09/30 02:47:08;;;;;;;17.15;6.22;;;13.60;99.90;;;;;;5051662;28;20226;-51
2023/09/30 02:49:34;;;;;;;12.55;5.80;;;13.60;99.90;;;;;;5053557;28;20203;-51
2023/09/30 02:52:00;;;;;;;13.52;5.40;;;13.60;99.90;;;;;;5052871;28;20163;-51
2023/09/30 02:54:26;;;;;;;9.93;4.60;;;13.60;99.90;;;;;;5053119;28;20201;-51
2023/09/30 02:56:52;;;;;;;13.68;5.85;;;13.50;99.90;;;;;;5052755;28;20194;-51
2023/09/30 02:59:18;;;;;;;18.55;5.45;;;13.60;99.90;;;;;;5053069;28;20630;-51
2023/09/30 03:01:44;;;;;;;16.20;5.68;;;13.50;99.90;;;;;;5052984;28;20236;-51
2023/09/30 03:04:12;;;;;;;12.25;5.43;;;13.60;99.90;;;;;;5052933;28;20622;-50
2023/09/30 03:06:38;;;;;;;17.58;5.35;;;13.50;99.90;;;;;;5052546;28;20634;-51
2023/09/30 03:09:04;;;;;;;9.52;5.25;;;13.50;99.90;;;;;;5052983;28;20677;-51
2023/09/30 03:11:31;;;;;;;13.13;5.57;;;13.50;99.90;;;;;;5052498;28;20163;-51
2023/09/30 03:13:57;;;;;;;14.80;4.97;;;13.60;99.90;;;;;;5052689;28;20167;-51
2023/09/30 03:16:24;;;;;;;14.32;5.55;;;13.50;99.90;;;;;;5052631;28;20175;-51
2023/09/30 03:18:50;;;;;;;10.98;4.68;;;13.50;99.90;;;;;;5052388;28;20159;-51
2023/09/30 03:21:16;;;;;;;16.25;5.43;;;13.50;99.90;;;;;;5052634;28;20533;-51
2023/09/30 03:23:42;;;;;;;14.65;5.43;;;13.40;99.90;;;;;;5052231;28;20637;-51
2023/09/30 03:26:09;;;;;;;13.48;6.20;;;13.40;99.90;;;;;;5052254;28;20529;-51
2023/09/30 03:28:37;;;;;;;9.93;5.35;;;13.30;99.90;;;;;;5052219;28;20509;-49
2023/09/30 03:31:04;;;;;;;15.73;5.70;;;13.30;99.90;;;;;;5052516;28;20705;-51
2023/09/30 03:33:31;;;;;;;13.45;5.20;;;13.30;99.90;;;;;;5034124;28;20630;-51
2023/09/30 03:35:58;;;;;;;12.95;5.40;;;13.30;99.90;;;;;;5034638;28;20190;-51
2023/09/30 03:38:23;;;;;;;12.02;5.38;;;13.20;99.90;;;;;;5051965;28;20217;-51
2023/09/30 03:40:50;;;;;;;14.00;5.22;;;13.20;99.90;;;;;;5051976;28;20175;-51
2023/09/30 03:43:16;;;;;;;13.90;5.50;;;13.20;99.90;;;;;;5034634;28;20171;-51
2023/09/30 03:45:41;;;;;;;12.98;6.00;;;13.20;99.90;;;;;;5051745;28;20283;-51
2023/09/30 03:48:07;;;;;;;13.02;5.60;;;13.20;99.90;;;;;;5051878;28;20173;-50
2023/09/30 03:50:33;;;;;;;9.48;5.07;;;13.20;99.90;;;;;;5052445;28;20206;-51
2023/09/30 03:53:04;;;;;;;12.75;5.00;;;13.20;99.90;;;;;;5051764;28;20242;-51
2023/09/30 03:55:31;;;;;;;14.85;5.68;;;13.10;99.90;;;;;;5051632;28;20186;-51
2023/09/30 03:57:57;;;;;;;11.38;5.75;;;13.10;99.90;;;;;;5051642;28;20167;-51
2023/09/30 04:00:24;;;;;;;13.63;5.22;;;13.10;99.90;;;;;;5033821;28;20193;-51
2023/09/30 04:02:53;;;;;;;10.13;5.00;;;13.00;99.90;;;;;;5051904;28;20206;-51
2023/09/30 04:05:19;;;;;;;13.10;5.90;;;13.00;99.90;;;;;;5051503;28;20166;-51
2023/09/30 04:07:45;;;;;;;14.13;5.80;;;13.00;99.90;;;;;;5051509;28;20178;-51
2023/09/30 04:10:10;;;;;;;13.70;5.32;;;13.00;99.90;;;;;;5051226;28;20203;-51
2023/09/30 04:12:36;;;;;;;10.00;4.97;;;13.00;99.90;;;;;;5051615;28;20718;-50
2023/09/30 04:15:03;;;;;;;14.07;5.20;;;13.00;99.90;;;;;;5051931;28;20525;-51
2023/09/30 04:17:29;;;;;;;12.15;4.70;;;12.90;99.90;;;;;;5051669;28;20225;-51
2023/09/30 04:19:54;;;;;;;9.35;4.55;;;12.90;99.90;;;;;;5051447;28;20630;-51
2023/09/30 04:22:21;;;;;;;8.48;4.35;;;12.90;99.90;;;;;;5051371;28;20166;-51
2023/09/30 04:24:48;;;;;;;11.00;4.93;;;12.80;99.90;;;;;;5051420;28;20212;-51
2023/09/30 04:27:14;;;;;;;12.50;6.63;;;12.90;99.90;;;;;;5051377;28;20163;-50
2023/09/30 04:29:41;;;;;;;20.60;9.63;;;12.90;99.90;;;;;;5051212;28;20190;-51
2023/09/30 04:32:07;;;;;;;12.38;6.18;;;12.90;99.90;;;;;;5051307;28;20221;-51
2023/09/30 04:34:33;;;;;;;11.38;5.65;;;12.90;99.90;;;;;;5051684;28;20159;-51
2023/09/30 04:36:59;;;;;;;13.02;6.22;;;12.80;99.90;;;;;;5051187;28;20178;-50
2023/09/30 04:39:25;;;;;;;13.52;6.57;;;12.80;99.90;;;;;;5050970;28;20211;-51
2023/09/30 04:41:50;;;;;;;17.20;6.40;;;12.80;99.90;;;;;;5051138;28;20163;-50
2023/09/30 04:44:16;;;;;;;14.20;5.72;;;12.70;99.90;;;;;;5051187;28;20643;-51
2023/09/30 04:46:45;;;;;;;9.40;5.30;;;12.70;99.90;;;;;;5051119;28;20297;-51
2023/09/30 04:49:12;;;;;;;8.25;4.30;;;12.70;99.90;;;;;;5051028;28;20195;-51
2023/09/30 04:51:39;;;;;;;5.80;4.18;;;12.70;99.90;;;;;;5051350;28;20182;-51
2023/09/30 04:54:08;;;;;;;5.95;4.05;;;;;;;;;;5051585;28;20173;-51
2023/09/30 04:56:35;;;;;;;10.93;4.00;;;12.60;99.90;;;;;;5051473;28;20182;-50
2023/09/30 04:59:00;;;;;;;5.95;3.88;;;12.50;99.90;;;;;;5051699;28;20249;-51
2023/09/30 05:01:26;;;;;;;9.55;5.43;;;12.60;99.90;;;;;;5051264;28;20685;-51
2023/09/30 05:03:52;;;;;;;8.25;4.85;;;12.50;99.90;;;;;;5050937;28;20173;-51
2023/09/30 05:06:17;;;;;;;10.85;5.20;;;12.50;99.90;;;;;;5050931;28;20257;-50
2023/09/30 05:08:43;;;;;;;12.50;5.28;;;12.50;99.90;;;;;;5050981;28;20202;-49
2023/09/30 05:11:08;;;;;;;8.00;5.35;;;12.50;99.90;;;;;;5053576;28;20186;-49
2023/09/30 05:13:34;;;;;;;18.63;12.00;;;12.60;99.90;;;;;;5054941;28;20185;-49
2023/09/30 05:16:00;;;;;;;15.82;6.15;;;12.50;99.90;;;;;;5055249;28;20159;-50
2023/09/30 05:18:25;;;;;;;14.10;6.30;;;12.50;99.90;;;;;;5054753;28;20533;-49
2023/09/30 05:20:51;;;;;;;7.30;4.32;;;12.50;99.90;;;;;;5054649;28;20540;-49
2023/09/30 05:23:17;;;;;;;8.57;5.15;;;12.50;99.90;;;;;;5054654;28;20254;-49
2023/09/30 05:25:43;;;;;;;13.02;5.63;;;12.50;99.90;;;;;;5054570;28;20170;-49
2023/09/30 05:28:09;;;;;;;12.30;6.07;;;12.50;99.90;;;;;;5054723;28;20171;-50
2023/09/30 05:30:35;;;;;;;16.45;6.97;;;12.50;99.90;;;;;;5054524;28;20210;-49
2023/09/30 05:33:01;;;;;;;7.22;4.80;;;12.50;99.90;;;;;;5054635;28;20524;-51
2023/09/30 05:35:28;;;;;;;8.93;4.57;;;12.50;99.90;;;;;;5054203;28;20166;-51
2023/09/30 05:37:54;;;;;;;13.13;5.70;;;12.50;99.90;;;;;;5054361;28;20174;-51
2023/09/30 05:40:24;;;;;;;7.85;4.80;;;12.40;99.90;;;;;;5054447;28;20243;-51
2023/09/30 05:42:54;;;;;;;8.77;4.63;;;12.40;99.90;;;;;;5054375;28;20174;-51
2023/09/30 05:45:23;;;;;;;5.65;4.22;;;12.40;99.90;;;;;;5054080;28;20627;-51
2023/09/30 05:47:49;;;;;;;12.02;5.43;;;12.50;99.90;;;;;;5054032;28;20604;-51
2023/09/30 05:50:16;;;;;;;7.97;4.65;;;12.50;99.90;;;;;;5054071;28;20288;-51
2023/09/30 05:52:43;;;;;;;6.53;4.30;;;12.50;99.90;;;;;;5054295;28;20178;-50
2023/09/30 05:55:09;;;;;;;9.80;5.53;;;12.50;99.90;;;;;;5054241;28;20182;-50
2023/09/30 05:57:35;;;;;;;6.82;4.57;;;;;;;;;;5053996;28;20163;-49
2023/09/30 06:00:50;;;;;;;6.82;4.43;;;12.50;99.90;;;;;;5054439;28;20162;-51
2023/09/30 06:02:51;;;;;;;5.95;4.45;;;12.50;99.90;;;;;;5043188;28;20637;-49
2023/09/30 06:05:22;;;;;;;6.07;4.20;;;12.50;99.90;;;;;;5053936;28;20681;-52
2023/09/30 06:07:50;;;;;;;14.15;5.38;;;12.50;99.90;;;;;;5054030;28;20225;-51
2023/09/30 06:10:18;;;;;;;5.22;3.85;;;12.60;99.90;;;;;;5053903;28;20264;-51
2023/09/30 06:12:44;;;;;;;5.80;3.60;;;12.60;99.90;;;;;;5036119;28;20167;-49
2023/09/30 06:15:10;;;;;;;5.22;3.75;;;12.60;99.90;;;;;;5053604;28;20201;-51
2023/09/30 06:17:35;;;;;;;8.20;4.10;;;12.60;99.90;;;;;;5053931;28;20191;-51
2023/09/30 06:20:09;;;;;;;9.10;4.13;;;12.60;99.90;;;;;;5053968;28;20534;-51
2023/09/30 06:22:35;;;;;;;6.53;5.00;;;12.60;99.90;;;;;;5034527;28;20267;-50
2023/09/30 06:25:03;;;;;;;11.68;5.28;;;12.70;99.90;;;;;;5053902;28;20246;-51
2023/09/30 06:27:29;;;;;;;12.18;6.20;;;12.70;99.90;;;;;;5035912;28;20630;-50
2023/09/30 06:29:55;;;;;;;13.82;7.43;;;12.70;99.90;;;;;;5053270;28;20218;-51
2023/09/30 06:32:21;;;;;;;13.75;6.82;;;12.90;99.90;;;;;;5053542;28;20167;-51
2023/09/30 06:34:46;;;;;;;15.52;8.07;;;12.90;99.90;;;;;;5053189;28;20162;-51
2023/09/30 06:37:12;;;;;;;16.10;8.85;;;13.00;99.90;;;;;;5053170;28;20159;-51
2023/09/30 06:39:38;;;;;;;19.65;9.30;;;13.10;99.90;;;;;;5053131;28;20167;-51
2023/09/30 06:42:03;;;;;;;26.02;12.07;;;13.10;99.90;;;;;;5035654;28;20163;-51
2023/09/30 06:44:31;;;;;;;14.23;8.88;;;13.20;99.90;;;;;;5053408;28;20170;-50
2023/09/30 06:46:56;;;;;;;14.13;7.72;;;13.30;99.90;;;;;;5052911;28;20223;-51
2023/09/30 06:49:22;;;;;;;13.43;7.45;;;13.40;99.90;;;;;;5052892;28;20199;-51
2023/09/30 06:51:47;;;;;;;14.60;8.82;;;13.40;99.90;;;;;;5052997;28;20174;-51
2023/09/30 06:54:13;;;;;;;13.05;9.20;;;13.50;99.90;;;;;;5052961;28;20175;-51
2023/09/30 06:56:38;;;;;;;19.23;10.00;;;13.50;99.90;;;;;;5052849;28;20261;-51
2023/09/30 06:59:06;;;;;;;17.55;11.35;;;;;;;;;;5034656;28;20511;-50
2023/09/30 07:01:32;;;;;;;16.52;11.98;;;13.70;99.90;;;;;;5053318;28;20181;-51
2023/09/30 07:03:57;;;;;;;17.75;11.55;;;14.00;99.90;;;;;;5034698;28;20170;-51
2023/09/30 07:06:26;;;;;;;21.73;11.30;;;14.10;99.90;;;;;;5052691;28;20173;-51
2023/09/30 07:08:52;;;;;;;15.77;11.57;;;14.40;99.90;;;;;;5052038;28;20170;-51
2023/09/30 07:11:32;;;;;;;14.80;10.82;;;14.40;99.90;;;;;;5052520;28;20171;-51
2023/09/30 07:13:58;;;;;;;14.18;10.07;;;;;;;;;;5052357;28;20199;-51
2023/09/30 07:16:24;;;;;;;17.02;9.93;;;;;;;;;;5051986;28;20249;-50
2023/09/30 07:18:50;;;;;;;19.65;9.80;;;14.90;99.90;;;;;;5052092;28;20163;-51
2023/09/30 07:21:16;;;;;;;16.73;10.55;;;15.00;99.90;;;;;;5034692;28;20185;-50
2023/09/30 07:23:42;;;;;;;22.92;12.98;;;15.10;99.90;;;;;;5052504;28;20166;-51
2023/09/30 07:26:07;;;;;;;19.17;12.30;;;15.30;99.90;;;;;;5052212;28;20176;-50
2023/09/30 07:28:34;;;;;;;20.90;12.85;;;15.30;99.90;;;;;;5052792;28;20159;-48
2023/09/30 07:30:59;;;;;;;18.70;12.10;;;15.30;99.90;;;;;;5052447;28;20207;-49
2023/09/30 07:33:25;;;;;;;30.35;16.55;;;15.40;99.90;;;;;;5051746;28;20224;-49
2023/09/30 07:35:50;;;;;;;20.33;11.80;;;15.60;99.90;;;;;;5052134;28;20245;-49
2023/09/30 07:38:16;;;;;;;15.65;10.88;;;15.60;99.90;;;;;;5052297;28;20687;-48
2023/09/30 07:40:42;;;;;;;17.17;11.15;;;15.60;99.90;;;;;;5051926;28;20170;-48
2023/09/30 07:43:08;;;;;;;18.00;12.73;;;15.70;99.90;;;;;;5051850;28;20163;-48
2023/09/30 07:45:34;;;;;;;21.85;12.27;;;;;;;;;;5052041;28;20305;-47
2023/09/30 07:48:04;;;;;;;22.33;12.00;;;15.80;99.90;;;;;;5052243;28;20202;-49
2023/09/30 07:50:30;;;;;;;21.80;12.13;;;;;;;;;;5051972;28;20217;-49
2023/09/30 07:52:56;;;;;;;20.00;11.52;;;16.10;99.90;;;;;;5051579;28;20213;-49
2023/09/30 07:55:21;;;;;;;23.42;11.93;;;16.10;99.90;;;;;;5051716;28;20674;-49
2023/09/30 07:57:47;;;;;;;21.98;11.68;;;16.20;99.90;;;;;;5051683;28;20195;-49
2023/09/30 08:00:16;;;;;;;18.30;11.57;;;16.30;99.90;;;;;;5051437;28;20653;-51
2023/09/30 08:02:42;;;;;;;20.80;11.68;;;16.20;99.90;;;;;;5051688;28;20191;-51
2023/09/30 08:05:09;;;;;;;16.98;10.75;;;16.20;99.90;;;;;;5051663;28;20221;-51
2023/09/30 08:07:35;;;;;;;19.45;11.40;;;16.10;99.90;;;;;;5051704;28;20167;-51
2023/09/30 08:10:04;;;;;;;18.55;10.32;;;16.10;99.90;;;;;;5051816;28;20207;-51
2023/09/30 08:12:30;;;;;;;14.05;9.70;;;16.10;99.90;;;;;;5052021;28;20163;-50
2023/09/30 08:14:55;;;;;;;15.18;9.63;;;16.20;99.90;;;;;;5051476;28;20185;-51
2023/09/30 08:17:21;;;;;;;17.45;10.75;;;16.50;99.90;;;;;;5051410;28;20166;-51
2023/09/30 08:19:47;;;;;;;15.98;10.68;;;16.60;99.90;;;;;;5051605;28;20179;-51
2023/09/30 08:22:14;;;;;;;15.77;9.85;;;16.90;99.90;;;;;;5051551;28;20170;-51
2023/09/30 08:24:40;;;;;;;16.63;10.85;;;;;;;;;;5051634;28;20212;-50
2023/09/30 08:27:06;;;;;;;19.70;11.52;;;16.80;99.90;;;;;;5051493;28;20244;-51
2023/09/30 08:29:36;;;;;;;15.77;13.15;;;16.80;99.90;;;;;;5051709;28;20669;-51
2023/09/30 08:32:02;;;;;;;16.08;11.80;;;17.00;99.90;;;;;;5051710;28;20174;-51
2023/09/30 08:34:28;;;;;;;14.88;11.32;;;17.20;99.90;;;;;;5050958;28;20258;-51
2023/09/30 08:36:54;;;;;;;13.00;10.50;;;17.10;99.90;;;;;;5051571;28;20220;-51
2023/09/30 08:39:19;;;;;;;16.05;9.75;;;17.30;99.90;;;;;;5050820;28;20166;-51
2023/09/30 08:41:46;;;;;;;15.57;10.43;;;17.40;99.90;;;;;;5050997;28;20186;-51
2023/09/30 08:44:12;;;;;;;14.68;8.73;;;17.30;99.90;;;;;;5050843;28;20629;-51
2023/09/30 08:46:39;;;;;;;14.40;9.35;;;17.40;99.90;;;;;;5054277;28;20799;-51
2023/09/30 08:49:05;;;;;;;18.55;9.68;;;17.50;99.90;;;;;;5037339;28;20261;-51
2023/09/30 08:51:32;;;;;;;12.50;8.73;;;17.50;99.90;;;;;;5055556;28;20182;-52
2023/09/30 08:53:59;;;;;;;13.63;8.85;;;17.60;99.90;;;;;;5036963;28;20659;-48
2023/09/30 08:56:28;;;;;;;14.13;9.35;;;17.90;99.90;;;;;;5055153;28;20300;-49
2023/09/30 08:58:58;;;;;;;14.75;7.82;;;17.90;99.90;;;;;;5055134;28;20633;-49
2023/09/30 09:01:31;;;;;;;22.88;17.27;;;18.00;99.90;;;;;;5055350;28;20997;-49
2023/09/30 09:03:57;;;;;;;13.27;8.45;;;18.10;99.90;;;;;;5037102;28;20193;-51
2023/09/30 09:06:24;;;;;;;12.95;8.57;;;18.10;99.90;;;;;;5054882;28;20169;-50
2023/09/30 09:08:51;;;;;;;11.25;7.38;;;18.00;99.90;;;;;;5055244;28;20220;-49
2023/09/30 09:11:17;;;;;;;12.57;7.75;;;18.00;99.90;;;;;;5054881;28;20191;-49
2023/09/30 09:13:55;;;;;;;9.63;7.00;;;18.00;99.90;;;;;;5055121;28;20261;-49
2023/09/30 09:16:22;;;;;;;9.70;7.32;;;18.10;99.90;;;;;;5054987;28;20175;-49
2023/09/30 09:18:49;;;;;;;11.63;7.10;;;18.00;99.90;;;;;;5054979;28;20626;-50
2023/09/30 09:21:17;;;;;;;11.88;7.18;;;17.60;99.90;;;;;;5036792;28;20175;-50
2023/09/30 09:23:44;;;;;;;11.50;7.22;;;17.30;99.90;;;;;;5054819;28;20175;-50
2023/09/30 09:26:36;;;;;;;12.35;7.40;;;17.10;99.90;;;;;;5054784;28;20173;-50
2023/09/30 09:29:04;;;;;;;12.35;7.57;;;17.50;99.90;;;;;;5036750;28;20614;-50
2023/09/30 09:31:34;;;;;;;10.50;7.50;;;17.60;99.90;;;;;;5054547;28;20587;-49
2023/09/30 09:34:00;;;;;;;13.98;7.88;;;17.50;99.90;;;;;;5054860;28;20171;-51
2023/09/30 09:36:40;;;;;;;13.50;8.15;;;17.60;99.90;;;;;;5054386;28;20178;-49
2023/09/30 09:39:07;;;;;;;15.50;7.97;;;17.90;99.90;;;;;;5054348;28;20261;-49
2023/09/30 09:41:32;;;;;;;10.95;6.57;;;18.10;99.90;;;;;;5054533;28;20575;-49
2023/09/30 09:43:59;;;;;;;7.78;5.03;;;17.80;99.90;;;;;;5054227;28;20173;-49
2023/09/30 09:46:27;;;;;;;10.35;5.95;;;17.60;99.90;;;;;;5053939;28;20283;-49
2023/09/30 09:48:53;;;;;;;8.25;6.15;;;17.70;99.90;;;;;;5054359;28;20174;-50
2023/09/30 09:51:21;;;;;;;8.48;6.10;;;18.00;99.90;;;;;;5054034;28;20634;-51
2023/09/30 09:53:48;;;;;;;8.75;6.15;;;17.80;99.90;;;;;;5053943;28;20178;-51
2023/09/30 09:56:15;;;;;;;13.02;6.47;;;17.90;99.90;;;;;;5053888;28;20178;-49
2023/09/30 09:58:42;;;;;;;9.75;6.35;;;17.90;99.90;;;;;;5054252;28;20613;-52
2023/09/30 10:01:12;;;;;;;11.63;6.60;;;17.70;99.90;;;;;;5053874;28;20541;-51
2023/09/30 10:03:41;;;;;;;9.77;5.60;;;17.70;99.90;;;;;;5053788;28;20171;-51
2023/09/30 10:06:08;;;;;;;8.57;5.47;;;17.90;99.90;;;;;;5053951;28;20237;-51
2023/09/30 10:08:39;;;;;;;8.82;5.78;;;18.00;99.90;;;;;;5053722;28;20626;-51
2023/09/30 10:11:05;;;;;;;13.20;6.00;;;18.40;99.90;;;;;;5053566;28;20682;-49
2023/09/30 10:13:54;;;;;;;6.95;5.10;;;18.40;99.90;;;;;;5054039;28;20171;-50
2023/09/30 10:16:35;;;;;;;6.90;5.25;;;18.50;99.90;;;;;;5053608;28;20182;-51
2023/09/30 10:19:14;;;;;;;8.30;4.85;;;18.70;99.90;;;;;;5054031;28;20167;-51
2023/09/30 10:22:00;;;;;;;8.93;5.93;;;18.60;99.90;;;;;;5053505;28;20166;-51
2023/09/30 10:24:27;;;;;;;6.38;4.50;;;18.60;99.90;;;;;;5053349;28;20680;-51
2023/09/30 10:27:32;;;;;;;8.38;5.05;;;19.20;99.90;;;;;;5053344;28;20163;-51
2023/09/30 10:30:09;;;;;;;8.57;5.20;;;18.90;99.90;;;;;;5053486;28;20209;-51
2023/09/30 10:32:50;;;;;;;13.95;7.50;;;18.60;99.90;;;;;;5053618;28;20178;-51
2023/09/30 10:35:20;;;;;;;5.85;4.40;;;18.60;99.90;;;;;;5053510;28;20170;-51
2023/09/30 10:37:47;;;;;;;8.90;4.57;;;18.60;99.90;;;;;;5035386;28;20614;-49
2023/09/30 10:40:30;;;;;;;7.95;4.28;;;18.50;99.90;;;;;;5053397;28;20177;-51
2023/09/30 10:42:56;;;;;;;9.80;4.25;;;18.50;99.90;;;;;;5053140;28;20162;-51
2023/09/30 10:45:42;;;;;;;10.18;4.03;;;18.50;99.90;;;;;;5053118;28;20214;-50
2023/09/30 10:48:28;;;;;;;8.90;4.30;;;18.50;99.90;;;;;;5052949;28;20675;-49
2023/09/30 10:51:00;;;;;;;7.00;4.18;;;18.60;99.90;;;;;;5052945;28;20214;-51
2023/09/30 10:53:27;;;;;;;6.57;3.47;;;18.60;99.90;;;;;;5052958;28;20169;-51
2023/09/30 10:55:57;;;;;;;15.93;3.92;;;18.80;99.90;;;;;;5053126;28;20221;-51
2023/09/30 10:58:42;;;;;;;8.25;3.47;;;19.20;99.90;;;;;;5052777;28;20730;-51
2023/09/30 11:01:08;;;;;;;6.38;3.60;;;19.50;99.90;;;;;;5052776;28;20664;-50
2023/09/30 11:03:34;;;;;;;7.40;3.72;;;19.70;99.90;;;;;;5053031;28;20179;-49
2023/09/30 11:05:59;;;;;;;7.75;3.60;;;20.00;99.90;;;;;;5053065;28;20166;-51
2023/09/30 11:08:29;;;;;;;7.13;3.67;;;20.50;99.90;;;;;;5052255;28;20171;-50
2023/09/30 11:10:56;;;;;;;10.25;3.85;;;20.20;99.90;;;;;;5052732;28;20210;-51
2023/09/30 11:13:21;;;;;;;6.30;3.95;;;20.10;99.90;;;;;;5052454;28;20621;-50
2023/09/30 11:15:47;;;;;;;8.55;3.55;;;20.30;99.90;;;;;;5052498;28;20292;-50
2023/09/30 11:18:18;;;;;;;8.82;3.60;;;20.20;99.90;;;;;;5052322;28;20528;-51
2023/09/30 11:20:44;;;;;;;8.38;3.40;;;20.00;99.90;;;;;;5052356;28;20170;-51
2023/09/30 11:23:11;;;;;;;7.30;3.33;;;20.10;99.90;;;;;;5052325;28;20162;-51
2023/09/30 11:25:39;;;;;;;7.72;3.25;;;20.10;99.90;;;;;;5052380;28;20178;-51
2023/09/30 11:28:15;;;;;;;6.57;3.45;;;20.50;99.90;;;;;;5052331;28;20159;-50
2023/09/30 11:30:57;;;;;;;8.38;3.10;;;20.50;99.90;;;;;;5052409;28;20210;-50
2023/09/30 11:33:24;;;;;;;6.78;3.25;;;20.60;99.90;;;;;;5052665;28;20175;-51
2023/09/30 11:36:02;;;;;;;6.25;3.17;;;20.30;99.90;;;;;;5052397;28;20175;-51
2023/09/30 11:38:28;;;;;;;6.57;2.90;;;20.30;99.90;;;;;;5052666;28;20158;-50
2023/09/30 11:40:59;;;;;;;9.00;3.28;;;20.10;99.90;;;;;;5052304;28;20167;-50
2023/09/30 11:43:25;;;;;;;6.00;2.80;;;19.80;99.90;;;;;;5052125;28;20660;-50
2023/09/30 11:45:51;;;;;;;8.45;3.30;;;19.80;99.90;;;;;;5051786;28;20218;-50
2023/09/30 11:48:20;;;;;;;6.32;2.90;;;19.70;99.90;;;;;;5051969;28;20165;-51
2023/09/30 11:50:47;;;;;;;6.55;2.95;;;19.60;99.90;;;;;;5051821;28;20214;-51
2023/09/30 11:53:20;;;;;;;12.70;3.42;;;19.50;99.90;;;;;;5034059;28;20171;-51
2023/09/30 11:55:46;;;;;;;6.40;2.80;;;19.90;99.90;;;;;;5052023;28;20174;-49
2023/09/30 11:58:15;;;;;;;6.40;3.20;;;20.00;99.90;;;;;;5052038;28;20270;-49
2023/09/30 12:00:44;;;;;;;8.95;3.50;;;19.80;99.90;;;;;;5051952;28;20193;-50
2023/09/30 12:03:10;;;;;;;7.80;3.65;;;;;;;;;;5033791;28;20630;-51
2023/09/30 12:05:36;;;;;;;4.97;2.42;;;20.10;99.90;;;;;;5051842;28;20228;-50
2023/09/30 12:08:02;;;;;;;5.03;2.60;;;20.20;99.90;;;;;;5052263;28;20170;-51
2023/09/30 12:10:28;;;;;;;5.97;2.85;;;20.30;99.90;;;;;;5051914;28;20203;-50
2023/09/30 12:12:54;;;;;;;5.45;2.38;;;;;;;;;;5051737;28;20174;-50
2023/09/30 12:15:21;;;;;;;6.82;2.58;;;20.50;99.90;;;;;;5051786;28;20177;-51
2023/09/30 12:17:47;;;;;;;6.45;2.65;;;20.70;99.90;;;;;;5051763;28;20190;-50
2023/09/30 12:20:15;;;;;;;6.95;3.13;;;20.60;99.90;;;;;;5050743;28;20194;-51
2023/09/30 12:22:41;;;;;;;17.58;11.02;;;20.60;99.90;;;;;;5051705;28;20186;-51
2023/09/30 12:25:08;;;;;;;5.57;3.13;;;20.30;99.90;;;;;;5033550;28;20170;-51
2023/09/30 12:27:34;;;;;;;5.70;2.90;;;20.10;99.90;;;;;;5051409;28;20533;-50
2023/09/30 12:29:59;;;;;;;4.95;2.80;;;19.90;99.90;;;;;;5051692;28;20205;-51
2023/09/30 12:32:26;;;;;;;7.32;2.83;;;19.70;99.90;;;;;;5051188;28;20178;-51
2023/09/30 12:34:53;;;;;;;4.68;2.50;;;19.80;99.90;;;;;;5051439;28;20174;-51
2023/09/30 12:37:18;;;;;;;6.00;2.95;;;20.20;99.90;;;;;;5051211;28;20653;-51
2023/09/30 12:39:44;;;;;;;6.20;2.92;;;20.50;99.90;;;;;;5051308;28;20166;-52
2023/09/30 12:42:12;;;;;;;8.73;3.33;;;20.60;99.90;;;;;;5051284;28;20159;-51
2023/09/30 12:44:38;;;;;;;4.57;2.60;;;20.60;99.90;;;;;;5051379;28;20182;-50